createdAt,value
2022-09-02T00:01:45.198Z,100558.19
2022-09-02T00:04:20.358Z,100566.94
2022-09-02T00:06:50.376Z,100562.69
2022-09-02T00:09:22.344Z,100564.50
2022-09-02T00:11:53.167Z,100562.75
2022-09-02T00:14:24.920Z,100562.75
2022-09-02T00:16:54.043Z,100559.28
2022-09-02T00:19:25.491Z,100557.66
2022-09-02T00:21:54.929Z,100555.09
2022-09-02T00:24:25.062Z,100552.59
2022-09-02T00:26:56.548Z,100555.19
2022-09-02T00:29:26.071Z,100556.94
2022-09-02T00:31:54.949Z,100564.78
2022-09-02T00:34:23.999Z,100559.69
2022-09-02T00:36:53.113Z,100559.75
2022-09-02T00:39:22.380Z,100557.16
2022-09-02T00:41:51.673Z,100551.91
2022-09-02T00:44:24.652Z,100554.59
2022-09-02T00:46:53.045Z,100547.72
2022-09-02T00:49:25.320Z,100547.81
2022-09-02T00:51:58.837Z,100552.25
2022-09-02T00:54:29.240Z,100549.66
2022-09-02T00:56:58.078Z,100547.06
2022-09-02T00:59:37.290Z,100553.25
2022-09-02T01:02:08.170Z,100550.72
2022-09-02T01:04:37.194Z,100555.13
2022-09-02T01:07:06.676Z,100553.41
2022-09-02T01:09:36.311Z,100549.97
2022-09-02T01:12:05.890Z,100554.41
2022-09-02T01:14:36.724Z,100547.50
2022-09-02T01:17:07.119Z,100552.69
2022-09-02T01:19:39.752Z,100550.09
2022-09-02T01:22:17.611Z,100552.63
2022-09-02T01:24:46.120Z,100550.16
2022-09-02T01:27:17.345Z,100560.63
2022-09-02T01:29:46.584Z,100549.38
2022-09-02T01:32:15.371Z,100553.75
2022-09-02T01:34:43.936Z,100559.88
2022-09-02T01:37:15.613Z,100556.28
2022-09-02T01:39:45.277Z,100560.47
2022-09-02T01:42:20.445Z,100557.84
2022-09-02T01:44:48.915Z,100554.63
2022-09-02T01:47:23.581Z,100555.72
2022-09-02T01:49:52.743Z,100555.84
2022-09-02T01:52:25.277Z,100564.69
2022-09-02T01:54:54.050Z,100565.69
2022-09-02T01:57:24.708Z,100566.75
2022-09-02T01:59:54.010Z,100579.03
2022-09-02T02:02:23.602Z,100579.88
2022-09-02T02:04:52.699Z,100584.19
2022-09-02T02:07:24.943Z,100577.38
2022-09-02T02:09:53.528Z,100576.53
2022-09-02T02:12:22.692Z,100573.06
2022-09-02T02:14:51.441Z,100572.34
2022-09-02T02:17:20.903Z,100570.88
2022-09-02T02:19:49.517Z,100565.91
2022-09-02T02:22:17.953Z,100572.19
2022-09-02T02:24:47.872Z,100568.84
2022-09-02T02:27:16.520Z,100567.06
2022-09-02T02:29:45.791Z,100574.84
2022-09-02T02:32:18.539Z,100578.19
2022-09-02T02:34:48.213Z,100579.06
2022-09-02T02:37:17.354Z,100578.28
2022-09-02T02:39:47.629Z,100578.34
2022-09-02T02:42:17.824Z,100573.22
2022-09-02T02:44:47.745Z,100578.47
2022-09-02T02:47:16.669Z,100573.28
2022-09-02T02:49:45.652Z,100585.53
2022-09-02T02:52:14.777Z,100572.63
2022-09-02T02:54:45.224Z,100580.47
2022-09-02T02:57:15.155Z,100585.59
2022-09-02T02:59:43.753Z,100575.25
2022-09-02T03:02:13.944Z,100578.78
2022-09-02T03:04:43.054Z,100586.41
2022-09-02T03:07:12.161Z,100575.94
2022-09-02T03:09:40.963Z,100582.91
2022-09-02T03:12:11.413Z,100580.38
2022-09-02T03:14:42.427Z,100576.16
2022-09-02T03:17:11.305Z,100578.81
2022-09-02T03:19:40.024Z,100583.16
2022-09-02T03:22:11.099Z,100583.09
2022-09-02T03:24:39.797Z,100584.75
2022-09-02T03:27:08.695Z,100581.22
2022-09-02T03:29:37.192Z,100581.22
2022-09-02T03:32:07.298Z,100576.16
2022-09-02T03:34:37.199Z,100575.38
2022-09-02T03:37:06.636Z,100578.00
2022-09-02T03:39:35.690Z,100580.69
2022-09-02T03:42:05.737Z,100573.84
2022-09-02T03:44:35.665Z,100586.00
2022-09-02T03:47:04.742Z,100579.91
2022-09-02T03:49:36.449Z,100592.13
2022-09-02T03:52:05.374Z,100585.25
2022-09-02T03:54:33.991Z,100585.31
2022-09-02T03:57:02.472Z,100583.53
2022-09-02T03:59:31.710Z,100589.63
2022-09-02T04:02:00.546Z,100593.06
2022-09-02T04:04:29.750Z,100587.94
2022-09-02T04:07:00.998Z,100590.53
2022-09-02T04:09:29.785Z,100593.06
2022-09-02T04:11:58.766Z,100593.06
2022-09-02T04:14:27.811Z,100594.81
2022-09-02T04:16:57.028Z,100592.25
2022-09-02T04:19:25.979Z,100610.44
2022-09-02T04:21:54.980Z,100599.09
2022-09-02T04:24:25.013Z,100606.72
2022-09-02T04:26:53.501Z,100607.50
2022-09-02T04:29:22.142Z,100605.63
2022-09-02T04:31:54.138Z,100600.22
2022-09-02T04:34:24.165Z,100607.00
2022-09-02T04:36:56.503Z,100615.50
2022-09-02T04:39:27.029Z,100606.69
2022-09-02T04:41:55.831Z,100618.00
2022-09-02T04:44:27.548Z,100605.91
2022-09-02T04:46:56.252Z,100612.13
2022-09-02T04:49:25.971Z,100607.75
2022-09-02T04:51:56.727Z,100614.63
2022-09-02T04:54:28.367Z,100615.38
2022-09-02T04:57:01.160Z,100610.91
2022-09-02T04:59:30.740Z,100622.91
2022-09-02T05:02:08.786Z,100610.59
2022-09-02T05:04:38.035Z,100612.19
2022-09-02T05:07:12.214Z,100612.84
2022-09-02T05:09:47.822Z,100623.91
2022-09-02T05:12:19.686Z,100621.75
2022-09-02T05:15:00.363Z,100618.66
2022-09-02T05:17:33.293Z,100632.97
2022-09-02T05:20:03.775Z,100633.47
2022-09-02T05:22:37.881Z,100630.44
2022-09-02T05:25:11.520Z,100633.47
2022-09-02T05:27:40.807Z,100623.50
2022-09-02T05:30:11.134Z,100634.41
2022-09-02T05:32:41.541Z,100631.31
2022-09-02T05:35:13.925Z,100616.06
2022-09-02T05:37:42.831Z,100621.72
2022-09-02T05:40:14.957Z,100623.94
2022-09-02T05:42:45.459Z,100625.31
2022-09-02T05:45:18.299Z,100631.09
2022-09-02T05:47:48.772Z,100626.41
2022-09-02T05:50:18.268Z,100625.34
2022-09-02T05:52:52.399Z,100631.28
2022-09-02T05:55:25.023Z,100625.78
2022-09-02T05:57:54.272Z,100628.09
2022-09-02T06:00:24.641Z,100631.22
2022-09-02T06:03:01.086Z,100630.69
2022-09-02T06:05:36.096Z,100629.16
2022-09-02T06:08:14.893Z,100635.38
2022-09-02T06:10:44.964Z,100635.44
2022-09-02T06:13:22.999Z,100626.63
2022-09-02T06:15:55.989Z,100630.16
2022-09-02T06:18:29.340Z,100628.41
2022-09-02T06:21:00.414Z,100636.41
2022-09-02T06:23:36.052Z,100635.63
2022-09-02T06:26:07.593Z,100639.34
2022-09-02T06:28:37.357Z,100637.84
2022-09-02T06:31:10.961Z,100641.50
2022-09-02T06:33:39.507Z,100638.09
2022-09-02T06:36:10.825Z,100639.88
2022-09-02T06:38:45.619Z,100631.38
2022-09-02T06:41:19.870Z,100637.34
2022-09-02T06:43:48.564Z,100640.00
2022-09-02T06:46:25.355Z,100637.28
2022-09-02T06:48:57.234Z,100635.25
2022-09-02T06:51:28.608Z,100638.50
2022-09-02T06:53:59.175Z,100642.56
2022-09-02T06:56:37.094Z,100644.78
2022-09-02T06:59:07.750Z,100648.41
2022-09-02T07:01:51.845Z,100644.78
2022-09-02T07:04:41.788Z,100643.06
2022-09-02T07:07:13.903Z,100647.81
2022-09-02T07:09:50.671Z,100648.63
2022-09-02T07:12:21.388Z,100659.91
2022-09-02T07:15:12.085Z,100664.38
2022-09-02T07:17:42.337Z,100658.88
2022-09-02T07:20:15.318Z,100658.97
2022-09-02T07:25:21.101Z,100664.13
2022-09-02T07:27:53.195Z,100663.81
2022-09-02T07:30:22.190Z,100660.03
2022-09-02T07:32:56.863Z,100665.88
2022-09-02T07:35:28.453Z,100661.06
2022-09-02T07:37:57.953Z,100666.56
2022-09-02T07:40:26.765Z,100666.38
2022-09-02T07:42:58.179Z,100664.31
2022-09-02T07:45:28.107Z,100668.34
2022-09-02T07:47:56.753Z,100664.09
2022-09-02T07:50:27.288Z,100664.69
2022-09-02T07:52:57.943Z,100656.41
2022-09-02T07:55:29.521Z,100656.16
2022-09-02T07:58:00.149Z,100659.34
2022-09-02T08:00:29.103Z,100658.59
2022-09-02T08:03:04.353Z,100656.47
2022-09-02T08:05:38.877Z,100655.38
2022-09-02T08:08:08.199Z,100662.63
2022-09-02T08:10:38.665Z,100654.38
2022-09-02T08:13:10.752Z,100662.19
2022-09-02T08:15:39.166Z,100662.13
2022-09-02T08:18:08.538Z,100658.56
2022-09-02T08:20:47.965Z,100661.53
2022-09-02T08:23:25.684Z,100662.38
2022-09-02T08:26:05.857Z,100654.19
2022-09-02T08:28:36.451Z,100663.41
2022-09-02T08:31:08.201Z,100657.44
2022-09-02T08:33:37.397Z,100660.91
2022-09-02T08:36:07.086Z,100661.16
2022-09-02T08:38:37.053Z,100664.25
2022-09-02T08:41:15.158Z,100660.75
2022-09-02T08:43:47.327Z,100660.34
2022-09-02T08:46:18.659Z,100650.94
2022-09-02T08:48:53.170Z,100651.84
2022-09-02T08:51:32.090Z,100643.53
2022-09-02T08:54:11.458Z,100644.88
2022-09-02T08:56:42.310Z,100648.63
2022-09-02T08:59:15.228Z,100642.47
2022-09-02T09:01:47.727Z,100647.59
2022-09-02T09:04:35.981Z,100643.75
2022-09-02T09:07:24.972Z,100638.75
2022-09-02T09:10:11.024Z,100642.13
2022-09-02T09:13:09.236Z,100631.88
2022-09-02T09:15:50.409Z,100640.16
2022-09-02T09:18:22.219Z,100626.28
2022-09-02T09:20:50.652Z,100634.19
2022-09-02T09:23:33.989Z,100634.31
2022-09-02T09:26:09.114Z,100638.22
2022-09-02T09:28:43.930Z,100641.44
2022-09-02T09:31:17.165Z,100630.41
2022-09-02T09:34:03.213Z,100627.25
2022-09-02T09:36:53.807Z,100629.59
2022-09-02T09:39:25.841Z,100626.91
2022-09-02T09:41:56.271Z,100632.13
2022-09-02T09:44:45.186Z,100628.16
2022-09-02T09:47:22.999Z,100634.47
2022-09-02T09:49:53.249Z,100643.75
2022-09-02T09:52:27.413Z,100635.53
2022-09-02T09:55:25.133Z,100618.53
2022-09-02T09:57:54.682Z,100611.53
2022-09-02T10:00:29.411Z,100618.63
2022-09-02T10:03:02.890Z,100609.03
2022-09-02T10:05:35.598Z,100607.13
2022-09-02T10:08:08.297Z,100620.44
2022-09-02T10:10:57.844Z,100606.06
2022-09-02T10:13:30.216Z,100607.41
2022-09-02T10:16:24.826Z,100607.56
2022-09-02T10:19:00.790Z,100603.03
2022-09-02T10:21:51.938Z,100606.81
2022-09-02T10:24:43.073Z,100611.09
2022-09-02T10:27:17.968Z,100602.47
2022-09-02T10:29:57.128Z,100600.75
2022-09-02T10:32:44.173Z,100597.03
2022-09-02T10:35:23.326Z,100603.44
2022-09-02T10:38:07.994Z,100605.03
2022-09-02T10:40:44.781Z,100599.66
2022-09-02T10:43:29.242Z,100601.13
2022-09-02T10:46:02.431Z,100592.72
2022-09-02T10:48:46.444Z,100593.78
2022-09-02T10:51:29.129Z,100588.38
2022-09-02T10:54:14.798Z,100590.88
2022-09-02T10:56:51.248Z,100593.75
2022-09-02T10:59:23.894Z,100593.53
2022-09-02T11:01:57.198Z,100586.78
2022-09-02T11:04:39.186Z,100579.63
2022-09-02T11:07:11.290Z,100583.78
2022-09-02T11:09:46.122Z,100581.06
2022-09-02T11:12:22.116Z,100583.63
2022-09-02T11:15:04.429Z,100580.13
2022-09-02T11:17:41.009Z,100568.84
2022-09-02T11:20:16.536Z,100578.22
2022-09-02T11:22:56.444Z,100567.34
2022-09-02T11:25:29.256Z,100570.41
2022-09-02T11:28:07.172Z,100569.78
2022-09-02T11:30:45.008Z,100568.69
2022-09-02T11:33:20.969Z,100568.44
2022-09-02T11:35:51.060Z,100567.31
2022-09-02T11:38:34.934Z,100571.47
2022-09-02T11:41:36.869Z,100561.50
2022-09-02T11:44:29.375Z,100559.06
2022-09-02T11:47:20.489Z,100556.91
2022-09-02T11:50:24.510Z,100545.19
2022-09-02T11:53:05.105Z,100542.19
2022-09-02T11:55:38.639Z,100538.69
2022-09-02T11:58:07.170Z,100543.19
2022-09-02T12:00:38.182Z,100548.88
2022-09-02T12:03:38.850Z,100546.63
2022-09-02T12:06:13.538Z,100545.06
2022-09-02T12:09:05.270Z,100543.22
2022-09-02T12:11:47.214Z,100534.22
2022-09-02T12:15:07.456Z,100539.25
2022-09-02T12:18:11.173Z,100534.09
2022-09-02T12:21:16.650Z,100532.13
2022-09-02T12:24:26.391Z,100531.19
2022-09-02T12:27:24.709Z,100525.13
2022-09-02T12:29:54.177Z,100511.91
2022-09-02T12:33:08.189Z,100508.06
2022-09-02T12:35:57.899Z,100512.94
2022-09-02T12:38:33.357Z,100517.97
2022-09-02T12:41:24.063Z,100510.13
2022-09-02T12:44:12.595Z,100514.06
2022-09-02T12:46:54.617Z,100497.19
2022-09-02T12:49:44.047Z,100503.88
2022-09-02T12:52:34.559Z,100508.97
2022-09-02T12:55:06.139Z,100508.09
2022-09-02T12:57:43.407Z,100508.09
2022-09-02T13:00:20.088Z,100506.09
2022-09-02T13:03:03.372Z,100510.22
2022-09-02T13:05:49.018Z,100510.13
2022-09-02T13:08:53.919Z,100517.72
2022-09-02T13:12:13.109Z,100521.06
2022-09-02T13:15:00.183Z,100509.41
2022-09-02T13:17:48.326Z,100507.06
2022-09-02T13:20:47.190Z,100510.53
2022-09-02T13:23:44.148Z,100507.97
2022-09-02T13:26:48.799Z,100503.16
2022-09-02T13:30:00.385Z,100509.78
2022-09-02T13:32:31.968Z,100494.19
2022-09-02T13:35:05.752Z,100495.44
2022-09-02T13:37:37.309Z,100487.09
2022-09-02T13:40:20.331Z,100490.41
2022-09-02T13:42:51.079Z,100479.56
2022-09-02T13:45:22.481Z,100472.84
2022-09-02T13:47:53.982Z,100465.09
2022-09-02T13:50:27.597Z,100469.69
2022-09-02T13:55:53.163Z,100467.78
2022-09-02T13:58:33.429Z,100472.28
2022-09-02T14:01:25.844Z,100464.94
2022-09-02T14:03:58.998Z,100457.50
2022-09-02T14:06:32.062Z,100464.84
2022-09-02T14:09:04.080Z,100462.34
2022-09-02T14:11:39.959Z,100463.41
2022-09-02T14:14:10.325Z,100456.00
2022-09-02T14:16:39.312Z,100458.38
2022-09-02T14:19:14.942Z,100459.84
2022-09-02T14:21:50.102Z,100455.03
2022-09-02T14:24:23.306Z,100456.00
2022-09-02T14:26:54.237Z,100449.00
2022-09-02T14:29:24.443Z,100458.06
2022-09-02T14:32:12.626Z,100456.22
2022-09-02T14:34:43.330Z,100454.69
2022-09-02T14:37:25.726Z,100454.16
2022-09-02T14:40:03.808Z,100452.59
2022-09-02T14:42:32.566Z,100451.84
2022-09-02T14:45:06.783Z,100446.19
2022-09-02T14:47:39.236Z,100449.66
2022-09-02T14:50:15.544Z,100447.31
2022-09-02T14:52:52.216Z,100453.94
2022-09-02T14:55:45.324Z,100453.28
2022-09-02T14:58:14.782Z,100454.41
2022-09-02T15:00:46.675Z,100450.84
2022-09-02T15:03:16.275Z,100445.91
2022-09-02T15:05:45.081Z,100448.47
2022-09-02T15:08:16.222Z,100434.78
2022-09-02T15:10:46.327Z,100439.66
2022-09-02T15:13:26.371Z,100429.94
2022-09-02T15:15:57.146Z,100423.22
2022-09-02T15:18:27.790Z,100426.63
2022-09-02T15:20:57.907Z,100426.53
2022-09-02T15:23:32.570Z,100436.28
2022-09-02T15:26:03.958Z,100434.47
2022-09-02T15:28:34.098Z,100430.88
2022-09-02T15:31:04.017Z,100428.72
2022-09-02T15:33:33.036Z,100427.53
2022-09-02T15:36:09.502Z,100426.28
2022-09-02T15:38:41.312Z,100427.63
2022-09-02T15:41:18.901Z,100423.47
2022-09-02T15:43:49.139Z,100424.88
2022-09-02T15:46:23.733Z,100429.09
2022-09-02T15:48:53.480Z,100432.19
2022-09-02T15:51:24.168Z,100427.22
2022-09-02T15:53:58.411Z,100431.28
2022-09-02T15:56:28.597Z,100432.63
2022-09-02T15:59:01.302Z,100435.81
2022-09-02T16:01:33.629Z,100432.34
2022-09-02T16:04:03.176Z,100440.75
2022-09-02T16:06:33.246Z,100424.53
2022-09-02T16:09:04.029Z,100429.69
2022-09-02T16:11:33.608Z,100429.44
2022-09-02T16:14:02.246Z,100427.28
2022-09-02T16:16:30.853Z,100423.13
2022-09-02T16:18:59.779Z,100429.66
2022-09-02T16:21:30.268Z,100430.34
2022-09-02T16:23:58.999Z,100423.31
2022-09-02T16:26:30.567Z,100430.44
2022-09-02T16:29:01.179Z,100436.47
2022-09-02T16:31:32.791Z,100428.56
2022-09-02T16:34:03.314Z,100425.75
2022-09-02T16:36:33.938Z,100421.03
2022-09-02T16:39:03.447Z,100427.00
2022-09-02T16:41:35.626Z,100425.13
2022-09-02T16:44:06.568Z,100423.75
2022-09-02T16:46:36.854Z,100427.84
2022-09-02T16:49:06.506Z,100432.41
2022-09-02T16:51:35.064Z,100432.88
2022-09-02T16:54:06.005Z,100434.38
2022-09-02T16:56:38.175Z,100428.91
2022-09-02T16:59:09.238Z,100428.72
2022-09-02T17:01:39.023Z,100430.69
2022-09-02T17:04:08.997Z,100423.44
2022-09-02T17:06:42.056Z,100428.34
2022-09-02T17:09:11.201Z,100424.84
2022-09-02T17:11:42.758Z,100423.91
2022-09-02T17:14:12.576Z,100426.66
2022-09-02T17:16:46.639Z,100428.16
2022-09-02T17:19:21.630Z,100423.59
2022-09-02T17:21:52.266Z,100430.59
2022-09-02T17:24:22.855Z,100425.38
2022-09-02T17:26:56.471Z,100429.84
2022-09-02T17:29:47.922Z,100426.13
2022-09-02T17:32:18.446Z,100428.63
2022-09-02T17:34:48.156Z,100437.06
2022-09-02T17:37:18.632Z,100432.81
2022-09-02T17:39:47.543Z,100435.69
2022-09-02T17:42:16.921Z,100432.59
2022-09-02T17:44:45.667Z,100436.38
2022-09-02T17:47:16.455Z,100436.97
2022-09-02T17:49:45.200Z,100442.00
2022-09-02T17:52:15.686Z,100439.84
2022-09-02T17:54:44.778Z,100437.50
2022-09-02T17:57:43.206Z,100446.59
2022-09-02T18:00:22.531Z,100444.22
2022-09-02T18:03:25.836Z,100444.59
2022-09-02T18:06:16.644Z,100445.91
2022-09-02T18:08:53.042Z,100448.13
2022-09-02T18:11:23.391Z,100445.09
2022-09-02T18:14:04.525Z,100445.66
2022-09-02T18:16:37.145Z,100449.13
2022-09-02T18:19:14.408Z,100454.69
2022-09-02T18:21:53.487Z,100454.94
2022-09-02T18:24:32.310Z,100459.53
2022-09-02T18:27:11.869Z,100462.34
2022-09-02T18:29:54.324Z,100459.84
2022-09-02T18:32:37.318Z,100461.72
2022-09-02T18:35:23.811Z,100460.72
2022-09-02T18:38:02.288Z,100467.72
2022-09-02T18:40:44.272Z,100467.34
2022-09-02T18:43:22.319Z,100464.53
2022-09-02T18:45:54.824Z,100466.13
2022-09-02T18:48:27.872Z,100467.59
2022-09-02T18:51:00.398Z,100461.03
2022-09-02T18:53:34.004Z,100458.97
2022-09-02T18:56:07.171Z,100456.88
2022-09-02T18:58:41.099Z,100461.88
2022-09-02T19:01:19.026Z,100458.91
2022-09-02T19:03:47.739Z,100465.53
2022-09-02T19:06:19.406Z,100467.00
2022-09-02T19:08:50.425Z,100471.78
2022-09-02T19:11:20.114Z,100469.47
2022-09-02T19:13:51.180Z,100476.63
2022-09-02T19:16:23.788Z,100478.44
2022-09-02T19:18:52.941Z,100473.31
2022-09-02T19:21:31.658Z,100478.59
2022-09-02T19:24:02.192Z,100474.94
2022-09-02T19:26:30.731Z,100480.31
2022-09-02T19:28:59.818Z,100478.16
2022-09-02T19:31:36.666Z,100474.50
2022-09-02T19:34:08.671Z,100480.22
2022-09-02T19:36:44.371Z,100474.00
2022-09-02T19:39:13.519Z,100493.47
2022-09-02T19:41:42.286Z,100486.66
2022-09-02T19:44:14.436Z,100488.22
2022-09-02T19:49:41.123Z,100485.22
2022-09-02T19:52:11.985Z,100483.66
2022-09-02T19:54:42.199Z,100486.78
2022-09-02T19:57:11.046Z,100484.50
2022-09-02T19:59:40.575Z,100480.38
2022-09-02T20:02:12.692Z,100480.53
2022-09-02T20:04:41.631Z,100482.47
2022-09-02T20:07:11.545Z,100481.72
2022-09-02T20:09:41.304Z,100475.00
2022-09-02T20:12:12.510Z,100478.81
2022-09-02T20:14:41.498Z,100485.94
2022-09-02T20:17:16.007Z,100481.78
2022-09-02T20:19:45.070Z,100483.78
2022-09-02T20:22:15.937Z,100481.41
2022-09-02T20:24:45.056Z,100480.97
2022-09-02T20:27:23.453Z,100484.88
2022-09-02T20:30:12.154Z,100473.97
2022-09-02T20:32:53.826Z,100472.59
2022-09-02T20:35:57.475Z,100478.97
2022-09-02T20:38:50.630Z,100486.16
2022-09-02T20:41:30.919Z,100482.94
2022-09-02T20:44:14.794Z,100492.06
2022-09-02T20:46:56.612Z,100481.94
2022-09-02T20:49:54.251Z,100489.34
2022-09-02T20:52:31.475Z,100492.94
2022-09-02T20:55:06.934Z,100487.09
2022-09-02T20:58:13.854Z,100490.81
2022-09-02T21:01:01.381Z,100491.06
2022-09-02T21:03:43.226Z,100484.16
2022-09-02T21:06:16.960Z,100494.00
2022-09-02T21:08:58.395Z,100495.19
2022-09-02T21:11:32.415Z,100492.72
2022-09-02T21:14:08.331Z,100480.75
2022-09-02T21:16:53.739Z,100476.72
2022-09-02T21:19:30.524Z,100480.50
2022-09-02T21:22:06.734Z,100489.41
2022-09-02T21:24:40.611Z,100487.75
2022-09-02T21:27:15.797Z,100491.28
2022-09-02T21:29:50.965Z,100484.56
2022-09-02T21:32:28.473Z,100489.25
2022-09-02T21:35:02.272Z,100497.47
2022-09-02T21:37:34.807Z,100486.28
2022-09-02T21:40:08.414Z,100477.75
2022-09-02T21:43:00.891Z,100488.63
2022-09-02T21:45:41.808Z,100482.94
2022-09-02T21:48:24.158Z,100484.13
2022-09-02T21:50:59.499Z,100483.56
2022-09-02T21:53:46.488Z,100483.88
2022-09-02T21:56:27.540Z,100486.72
2022-09-02T21:59:18.094Z,100483.22
2022-09-02T22:01:55.012Z,100491.31
2022-09-02T22:04:40.713Z,100497.44
2022-09-02T22:07:19.194Z,100490.50
2022-09-02T22:09:55.972Z,100486.22
2022-09-02T22:12:26.871Z,100488.03
2022-09-02T22:15:04.334Z,100489.16
2022-09-02T22:17:48.408Z,100486.78
2022-09-02T22:20:24.278Z,100492.34
2022-09-02T22:22:55.822Z,100491.63
2022-09-02T22:25:27.100Z,100490.06
2022-09-02T22:28:02.700Z,100485.84
2022-09-02T22:30:32.836Z,100495.56
2022-09-02T22:33:08.999Z,100483.47
2022-09-02T22:35:43.101Z,100492.31
2022-09-02T22:38:26.677Z,100495.91
2022-09-02T22:40:59.535Z,100494.34
2022-09-02T22:43:36.068Z,100495.44
2022-09-02T22:46:28.972Z,100502.53
2022-09-02T22:49:18.503Z,100499.88
2022-09-02T22:52:09.148Z,100492.78
2022-09-02T22:54:37.840Z,100489.41
2022-09-02T22:57:18.887Z,100488.72
2022-09-02T23:00:02.544Z,100487.09
2022-09-02T23:02:36.454Z,100485.25
2022-09-02T23:05:37.413Z,100484.47
2022-09-02T23:08:07.442Z,100486.47
2022-09-02T23:10:40.722Z,100491.91
2022-09-02T23:13:20.143Z,100489.44
2022-09-02T23:15:59.160Z,100489.44
2022-09-02T23:18:39.934Z,100487.03
2022-09-02T23:21:22.629Z,100489.00
2022-09-02T23:24:04.156Z,100490.91
2022-09-02T23:26:42.249Z,100487.56
2022-09-02T23:29:18.431Z,100486.06
2022-09-02T23:32:06.747Z,100480.19
2022-09-02T23:34:54.146Z,100483.72
2022-09-02T23:37:35.119Z,100479.47
2022-09-02T23:40:11.684Z,100481.31
2022-09-02T23:42:41.042Z,100481.19
2022-09-02T23:45:21.941Z,100486.19
2022-09-02T23:48:25.746Z,100487.84
2022-09-02T23:51:07.202Z,100489.47
2022-09-02T23:53:42.078Z,100482.44
2022-09-02T23:56:23.881Z,100477.31
2022-09-02T23:59:11.899Z,100480.13
